Time;durP1;ratioP1;P1;durP2;ratioP2;P2;SDS_P1;SDS_P2;PMS_P1;PMS_P2;Temp;Humidity;BMP_temperature;BMP_pressure;BME280_temperature;BME280_humidity;BME280_pressure;Samples;Min_cycle;Max_cycle;Signal;HPM_P1;HPM_P2
2021/01/23 00:00:32;;;;;;;16.45;7.95;;;;;;;3.82;81.43;99208.66;5007171;28;20047;-77
2021/01/23 00:02:58;;;;;;;14.68;7.68;;;;;;;3.55;82.23;99204.00;5010200;28;20150;-76
2021/01/23 00:05:25;;;;;;;17.73;7.85;;;;;;;3.41;83.31;99203.88;5010039;28;20070;-77
2021/01/23 00:07:52;;;;;;;17.77;8.30;;;;;;;3.55;82.69;99197.97;5003459;28;20054;-76
2021/01/23 00:10:19;;;;;;;18.80;9.35;;;;;;;3.55;82.76;99193.59;4993868;28;20418;-78
2021/01/23 00:12:45;;;;;;;15.80;8.27;;;;;;;3.51;82.56;99193.84;4988247;28;20052;-78
2021/01/23 00:15:12;;;;;;;16.80;7.93;;;;;;;3.29;83.80;99184.56;4991920;28;20145;-76
2021/01/23 00:17:39;;;;;;;13.38;6.70;;;;;;;3.21;83.90;99178.09;4987844;28;20073;-77
2021/01/23 00:20:06;;;;;;;15.45;8.00;;;;;;;3.16;84.21;99167.94;4988205;28;20039;-76
2021/01/23 00:22:34;;;;;;;14.98;7.43;;;;;;;3.02;85.05;99170.41;4990203;28;20096;-76
2021/01/23 00:25:00;;;;;;;16.02;7.40;;;;;;;2.95;85.28;99153.44;4973525;28;20120;-78
2021/01/23 00:27:28;;;;;;;15.82;7.60;;;;;;;3.00;85.07;99146.22;4989691;28;20133;-78
2021/01/23 00:29:55;;;;;;;14.50;7.30;;;;;;;2.93;85.67;99150.09;4994232;28;20090;-76
2021/01/23 00:32:22;;;;;;;12.95;7.05;;;;;;;3.06;85.05;99161.50;4991192;28;20413;-76
2021/01/23 00:34:48;;;;;;;15.63;6.25;;;;;;;3.20;85.11;99159.06;4992632;28;20050;-78
2021/01/23 00:37:15;;;;;;;15.80;7.50;;;;;;;3.15;84.95;99157.59;4995137;28;20104;-77
2021/01/23 00:39:42;;;;;;;14.05;7.00;;;;;;;3.09;85.65;99155.31;4998639;28;20046;-77
2021/01/23 00:42:09;;;;;;;18.55;8.95;;;;;;;3.04;85.17;99140.78;4987191;28;20061;-76
2021/01/23 00:44:36;;;;;;;15.95;6.95;;;;;;;2.96;85.65;99129.94;4996271;28;20057;-78
2021/01/23 00:47:03;;;;;;;21.42;7.30;;;;;;;2.95;86.30;99120.47;4993665;28;20050;-78
2021/01/23 00:49:30;;;;;;;13.93;6.68;;;;;;;2.91;86.20;99121.53;4991254;28;20141;-76
2021/01/23 00:51:57;;;;;;;18.15;8.25;;;;;;;2.98;85.15;99124.69;5006720;28;20038;-79
2021/01/23 00:54:23;;;;;;;12.68;6.47;;;;;;;2.86;85.28;99133.94;5016785;28;20383;-77
2021/01/23 00:56:50;;;;;;;10.95;6.07;;;;;;;3.02;85.37;99137.44;5013596;28;20050;-76
2021/01/23 00:59:17;;;;;;;12.27;6.13;;;;;;;3.38;83.64;99156.38;4990834;28;20054;-77
2021/01/23 01:01:43;;;;;;;11.70;6.28;;;;;;;3.41;83.13;99156.22;4989480;28;20054;-76
2021/01/23 01:04:10;;;;;;;15.85;6.57;;;;;;;3.22;83.74;99152.00;4970978;28;20080;-77
2021/01/23 01:06:37;;;;;;;11.55;6.18;;;;;;;3.46;82.73;99151.63;4989464;28;20168;-75
2021/01/23 01:09:04;;;;;;;9.70;5.78;;;;;;;3.40;82.73;99154.56;4984778;28;20050;-77
2021/01/23 01:11:30;;;;;;;12.50;6.60;;;;;;;3.47;83.04;99153.31;4954530;28;20034;-77
2021/01/23 01:13:57;;;;;;;12.77;5.90;;;;;;;3.47;83.12;99163.72;4990453;28;21025;-77
2021/01/23 01:16:25;;;;;;;11.65;6.60;;;;;;;3.62;81.68;99162.91;4982439;28;20065;-77
2021/01/23 01:18:51;;;;;;;12.90;7.20;;;;;;;3.35;82.68;99154.78;4972278;28;20061;-76
2021/01/23 01:21:18;;;;;;;12.13;6.40;;;;;;;3.22;83.09;99152.00;4987790;28;20058;-76
2021/01/23 01:23:45;;;;;;;13.25;5.90;;;;;;;3.13;83.31;99151.63;4989122;28;20046;-75
2021/01/23 01:26:12;;;;;;;13.63;7.53;;;;;;;3.09;83.23;99156.16;4976205;28;20161;-76
2021/01/23 01:28:41;;;;;;;12.48;6.97;;;;;;;3.18;83.83;99149.63;4989762;28;20058;-76
2021/01/23 01:31:08;;;;;;;13.55;6.18;;;;;;;3.30;83.32;99154.19;5004338;28;20034;-75
2021/01/23 01:33:35;;;;;;;13.90;7.20;;;;;;;3.43;82.66;99152.63;5003685;28;20029;-78
2021/01/23 01:36:02;;;;;;;11.02;7.25;;;;;;;3.45;82.87;99162.94;4995013;28;20066;-77
2021/01/23 01:38:29;;;;;;;11.13;6.43;;;;;;;3.47;81.44;99164.56;5003417;28;20055;-78
2021/01/23 01:40:56;;;;;;;11.25;7.00;;;;;;;3.44;81.96;99163.88;4986433;28;20409;-75
2021/01/23 01:43:23;;;;;;;17.95;7.25;;;;;;;3.37;82.03;99159.91;4998826;28;20142;-75
2021/01/23 01:45:50;;;;;;;11.45;6.53;;;;;;;3.25;82.56;99158.81;4970770;28;20065;-76
2021/01/23 01:48:17;;;;;;;16.73;7.57;;;;;;;3.15;82.76;99152.38;4983984;28;20069;-77
2021/01/23 01:50:44;;;;;;;17.83;6.57;;;;;;;3.13;82.71;99146.44;5000886;28;20056;-76
2021/01/23 01:53:11;;;;;;;11.70;7.28;;;;;;;3.06;83.60;99143.31;4988364;28;20069;-76
2021/01/23 01:55:37;;;;;;;14.80;7.40;;;;;;;2.94;83.86;99142.19;4967832;28;20058;-75
2021/01/23 01:58:04;;;;;;;11.90;6.82;;;;;;;3.10;83.29;99146.59;4994136;28;20069;-76
2021/01/23 02:00:32;;;;;;;14.73;6.95;;;;;;;3.29;82.80;99145.56;4996153;28;21112;-75
2021/01/23 02:03:17;;;;;;;11.88;7.00;;;;;;;3.55;81.93;99153.72;5002136;28;20114;-75
2021/01/23 02:06:08;;;;;;;21.40;10.25;;;;;;;3.40;81.48;99146.75;5010236;28;20040;-75
2021/01/23 02:08:43;;;;;;;12.98;7.85;;;;;;;3.29;82.06;99142.13;4994814;28;20052;-77
2021/01/23 02:11:29;;;;;;;10.77;6.88;;;;;;;3.19;82.42;99144.34;4978143;28;20050;-76
2021/01/23 02:14:00;;;;;;;;;;;;;;;3.35;82.04;99143.56;4988378;28;20062;-77
2021/01/23 02:16:34;;;;;;;13.60;7.18;;;;;;;3.74;80.63;99145.78;4990403;28;19932;-77
2021/01/23 02:19:33;;;;;;;13.18;7.65;;;;;;;3.71;79.79;99138.13;4992473;28;20507;-76
2021/01/23 02:22:08;;;;;;;18.27;8.70;;;;;;;3.64;79.52;99148.03;4990121;28;20042;-77
2021/01/23 02:24:35;;;;;;;;;;;;;;;3.53;80.26;99140.81;4992466;28;20469;-77
2021/01/23 02:27:30;;;;;;;16.35;7.60;;;;;;;3.37;80.26;99144.31;4972577;28;19929;-76
2021/01/23 02:30:11;;;;;;;13.60;7.40;;;;;;;3.61;79.96;99148.22;4973170;28;20050;-76
2021/01/23 02:32:39;;;;;;;15.77;8.15;;;;;;;3.54;80.08;99152.06;4972858;28;20052;-76
2021/01/23 02:35:09;;;;;;;16.77;8.07;;;;;;;3.57;79.92;99141.50;4985808;28;20095;-77
2021/01/23 02:37:38;;;;;;;20.02;8.82;;;;;;;3.47;79.99;99146.34;4993320;28;20053;-76
2021/01/23 02:40:08;;;;;;;20.40;8.48;;;;;;;3.37;80.83;99141.69;5003555;28;20062;-77
2021/01/23 02:42:34;;;;;;;14.80;7.35;;;;;;;3.25;81.51;99144.03;4990821;28;20042;-77
2021/01/23 02:45:04;;;;;;;14.52;8.43;;;;;;;3.20;81.90;99137.41;4982850;28;20053;-76
2021/01/23 02:47:30;;;;;;;14.70;8.77;;;;;;;3.18;81.91;99142.66;5005150;28;20054;-75
2021/01/23 02:49:58;;;;;;;14.55;7.93;;;;;;;3.28;82.07;99140.44;4995937;28;20105;-75
2021/01/23 02:52:39;;;;;;;14.18;8.48;;;;;;;3.22;82.44;99135.56;4963029;28;20046;-75
2021/01/23 02:55:07;;;;;;;20.45;9.88;;;;;;;3.10;82.49;99136.19;4996851;28;20054;-76
2021/01/23 02:57:37;;;;;;;12.82;7.85;;;;;;;3.04;82.80;99138.19;4975696;28;20073;-78
2021/01/23 03:00:08;;;;;;;13.85;7.90;;;;;;;3.01;83.36;99137.50;4981722;28;20042;-78
2021/01/23 03:02:37;;;;;;;15.88;9.20;;;;;;;3.02;83.04;99129.66;4985439;28;20038;-80
2021/01/23 03:05:05;;;;;;;14.80;7.68;;;;;;;3.33;82.54;99134.97;4967039;28;20050;-77
2021/01/23 03:07:31;;;;;;;16.67;7.72;;;;;;;3.53;81.81;99133.00;4984842;28;20054;-77
2021/01/23 03:10:04;;;;;;;19.45;8.38;;;;;;;3.33;81.79;99130.63;4986656;28;20050;-78
2021/01/23 03:12:31;;;;;;;13.98;8.20;;;;;;;3.20;82.73;99125.25;5022200;28;20050;-77
2021/01/23 03:14:57;;;;;;;24.17;8.98;;;;;;;3.39;82.71;99126.88;5019488;28;20033;-77
2021/01/23 03:17:24;;;;;;;14.68;8.38;;;;;;;3.18;83.37;99134.03;5025313;28;20042;-76
2021/01/23 03:19:53;;;;;;;25.67;10.98;;;;;;;3.20;82.89;99127.00;4981539;28;20060;-76
2021/01/23 03:22:20;;;;;;;21.70;8.65;;;;;;;3.23;82.45;99127.66;4991705;28;20133;-77
2021/01/23 03:24:46;;;;;;;16.75;8.30;;;;;;;3.14;82.80;99130.75;5001112;28;20054;-76
2021/01/23 03:27:13;;;;;;;13.50;8.15;;;;;;;3.04;83.07;99132.16;4987281;28;20064;-77
2021/01/23 03:29:40;;;;;;;19.13;8.88;;;;;;;3.02;83.56;99129.66;4993602;28;20534;-76
2021/01/23 03:32:07;;;;;;;17.38;8.63;;;;;;;3.31;82.40;99127.28;4977033;28;20049;-78
2021/01/23 03:34:33;;;;;;;15.73;8.32;;;;;;;3.16;83.01;99131.53;4984827;28;20051;-75
2021/01/23 03:37:00;;;;;;;15.38;8.48;;;;;;;3.20;82.86;99132.22;4981465;28;20112;-77
2021/01/23 03:39:27;;;;;;;18.50;8.40;;;;;;;3.46;82.90;99129.03;4989948;28;20058;-77
2021/01/23 03:41:54;;;;;;;16.65;7.95;;;;;;;3.51;81.87;99121.84;4998243;28;20060;-77
2021/01/23 03:44:20;;;;;;;16.23;8.57;;;;;;;3.42;82.00;99117.16;4960723;28;20069;-76
2021/01/23 03:46:47;;;;;;;19.63;9.13;;;;;;;3.40;82.22;99118.13;5012593;28;20065;-76
2021/01/23 03:49:14;;;;;;;21.30;10.48;;;;;;;3.40;82.11;99120.75;4986640;28;20055;-77
2021/01/23 03:51:42;;;;;;;16.60;8.60;;;;;;;3.13;83.37;99123.03;4995200;28;20140;-76
2021/01/23 03:54:08;;;;;;;14.30;9.00;;;;;;;3.26;82.55;99124.06;4982661;28;20520;-77
2021/01/23 03:56:35;;;;;;;15.80;8.88;;;;;;;3.40;82.30;99121.56;4993805;28;20050;-78
2021/01/23 03:59:02;;;;;;;20.17;9.38;;;;;;;3.16;82.57;99126.31;4995397;28;20141;-77
2021/01/23 04:01:29;;;;;;;21.08;9.77;;;;;;;3.30;81.24;99118.63;4990598;28;20066;-77
2021/01/23 04:03:56;;;;;;;15.18;8.73;;;;;;;3.21;81.94;99119.13;4985876;28;20038;-76
2021/01/23 04:06:23;;;;;;;13.57;8.55;;;;;;;3.22;82.41;99119.94;4977846;28;20064;-77
2021/01/23 04:08:50;;;;;;;18.27;9.52;;;;;;;3.27;81.58;99113.56;4974370;28;20535;-77
2021/01/23 04:11:16;;;;;;;16.02;9.48;;;;;;;3.18;82.40;99121.03;4991954;28;20046;-76
2021/01/23 04:13:43;;;;;;;15.38;8.25;;;;;;;3.10;82.44;99121.44;4975911;28;20106;-76
2021/01/23 04:16:10;;;;;;;17.25;8.40;;;;;;;3.11;81.99;99130.06;5009444;28;20052;-75
2021/01/23 04:18:37;;;;;;;18.35;8.85;;;;;;;2.93;82.99;99124.94;4993791;28;20136;-79
2021/01/23 04:21:05;;;;;;;17.27;8.75;;;;;;;2.92;83.72;99117.19;4992406;28;20092;-78
2021/01/23 04:23:33;;;;;;;18.10;8.98;;;;;;;2.82;84.42;99124.63;4995752;28;20072;-76
2021/01/23 04:26:00;;;;;;;16.38;8.38;;;;;;;2.86;84.22;99117.50;4981440;28;20085;-76
2021/01/23 04:28:27;;;;;;;17.33;9.27;;;;;;;2.96;84.13;99121.31;4996229;28;20054;-75
2021/01/23 04:30:54;;;;;;;17.50;9.70;;;;;;;2.90;83.95;99129.44;4995678;28;20057;-77
2021/01/23 04:33:21;;;;;;;15.25;8.25;;;;;;;3.25;83.09;99122.41;5008025;28;20061;-78
2021/01/23 04:35:49;;;;;;;12.77;8.43;;;;;;;3.54;81.40;99115.63;5012870;28;20092;-77
2021/01/23 04:38:16;;;;;;;14.20;9.02;;;;;;;3.45;81.69;99116.97;4993873;28;20050;-76
2021/01/23 04:40:43;;;;;;;14.93;9.02;;;;;;;3.34;81.66;99115.88;4975990;28;20058;-76
2021/01/23 04:43:10;;;;;;;15.15;8.38;;;;;;;3.34;82.18;99116.72;4990294;28;20059;-77
2021/01/23 04:45:36;;;;;;;17.95;9.32;;;;;;;3.30;82.21;99126.44;4996794;28;20062;-77
2021/01/23 04:48:03;;;;;;;16.25;8.95;;;;;;;3.33;81.61;99122.81;4991700;28;20082;-75
2021/01/23 04:50:30;;;;;;;18.20;9.40;;;;;;;3.47;81.58;99124.69;4993481;28;20093;-75
2021/01/23 04:52:57;;;;;;;16.73;9.90;;;;;;;3.46;81.33;99120.41;4995865;28;20061;-76
2021/01/23 04:55:24;;;;;;;17.42;9.68;;;;;;;3.23;81.76;99127.66;4997943;28;20054;-77
2021/01/23 04:57:50;;;;;;;18.25;10.27;;;;;;;3.42;81.82;99127.56;4996141;28;20069;-76
2021/01/23 05:00:17;;;;;;;17.40;9.05;;;;;;;3.40;81.76;99124.19;4998630;28;20042;-77
2021/01/23 05:02:57;;;;;;;17.92;9.50;;;;;;;3.48;81.24;99127.22;5004788;28;20053;-77
2021/01/23 05:05:24;;;;;;;16.60;8.95;;;;;;;3.40;82.03;99118.97;5008773;28;20081;-75
2021/01/23 05:07:51;;;;;;;18.90;10.02;;;;;;;3.50;81.89;99125.34;5013336;28;20065;-79
2021/01/23 05:10:19;;;;;;;16.48;9.63;;;;;;;3.47;81.31;99124.69;4997631;28;20050;-76
2021/01/23 05:12:48;;;;;;;14.10;8.80;;;;;;;3.42;81.92;99111.06;5012665;28;20130;-77
2021/01/23 05:15:24;;;;;;;17.17;9.23;;;;;;;3.39;81.49;99112.09;5008923;28;20078;-77
2021/01/23 05:17:58;;;;;;;19.00;9.32;;;;;;;3.44;81.82;99104.03;5014630;28;20069;-77
2021/01/23 05:20:42;;;;;;;17.88;9.30;;;;;;;3.34;81.29;99100.28;4998430;28;20127;-78
2021/01/23 05:23:30;;;;;;;16.15;8.93;;;;;;;3.22;82.03;99097.38;4987818;28;20065;-77
2021/01/23 05:25:59;;;;;;;19.75;8.48;;;;;;;3.19;82.02;99099.31;5004569;28;20144;-78
2021/01/23 05:28:35;;;;;;;17.42;9.13;;;;;;;3.15;82.17;99111.66;5002528;28;20050;-77
2021/01/23 05:31:07;;;;;;;18.60;9.02;;;;;;;3.11;82.36;99096.25;5003329;28;20046;-77
2021/01/23 05:33:35;;;;;;;17.00;9.43;;;;;;;3.12;82.25;99088.41;5007053;28;20057;-76
2021/01/23 05:36:08;;;;;;;18.10;9.45;;;;;;;3.25;81.95;99086.81;5020211;28;20076;-76
2021/01/23 05:39:03;;;;;;;18.27;9.27;;;;;;;2.84;83.20;99094.22;5004378;28;20061;-75
2021/01/23 05:41:29;;;;;;;15.68;9.18;;;;;;;2.78;83.57;99094.50;5000893;28;20051;-76
2021/01/23 05:43:56;;;;;;;15.75;8.95;;;;;;;2.72;84.45;99100.03;4994016;28;20054;-76
2021/01/23 05:46:26;;;;;;;16.65;9.70;;;;;;;2.79;83.60;99099.66;4988400;28;20057;-75
2021/01/23 05:48:54;;;;;;;16.85;9.27;;;;;;;2.94;83.07;99098.00;4972235;28;20385;-77
2021/01/23 05:51:21;;;;;;;17.58;9.38;;;;;;;2.83;83.37;99095.09;4977608;28;20043;-76
2021/01/23 05:53:48;;;;;;;17.83;9.25;;;;;;;2.76;82.75;99105.00;4975454;28;20163;-76
2021/01/23 05:56:15;;;;;;;15.82;8.57;;;;;;;2.71;82.79;99098.34;4959194;28;20184;-78
2021/01/23 05:58:43;;;;;;;17.77;9.10;;;;;;;2.81;82.72;99104.75;4990411;28;20097;-76
2021/01/23 06:01:14;;;;;;;14.02;8.32;;;;;;;2.75;83.15;99098.13;4988783;28;20092;-78
2021/01/23 06:03:46;;;;;;;18.08;8.57;;;;;;;2.92;82.59;99096.38;4987947;28;20119;-77
2021/01/23 06:06:13;;;;;;;14.65;8.68;;;;;;;2.93;82.17;99098.09;4979908;28;20056;-77
2021/01/23 06:08:46;;;;;;;17.95;9.02;;;;;;;2.86;82.73;99097.56;4996347;28;20065;-76
2021/01/23 06:11:18;;;;;;;26.08;8.93;;;;;;;3.12;81.67;99093.59;4997642;28;20058;-78
2021/01/23 06:13:52;;;;;;;17.10;8.65;;;;;;;3.15;81.08;99092.59;4998005;28;20106;-76
2021/01/23 06:16:31;;;;;;;20.30;9.98;;;;;;;3.00;81.96;99089.03;4989290;28;20046;-78
2021/01/23 06:18:59;;;;;;;19.65;9.50;;;;;;;2.83;82.77;99089.91;5000023;28;20616;-77
2021/01/23 06:21:44;;;;;;;17.58;9.55;;;;;;;2.65;84.29;99090.84;5006694;28;20050;-76
2021/01/23 06:24:14;;;;;;;16.58;9.50;;;;;;;2.65;84.37;99090.84;5002018;28;20058;-79
2021/01/23 06:27:07;;;;;;;18.92;9.30;;;;;;;2.97;82.85;99091.78;4989835;28;20130;-78
2021/01/23 06:29:35;;;;;;;21.23;10.77;;;;;;;2.88;83.97;99095.72;5002296;28;20511;-78
2021/01/23 06:32:14;;;;;;;18.38;9.90;;;;;;;2.73;84.16;99096.50;5009064;28;20045;-77
2021/01/23 06:34:47;;;;;;;20.67;10.10;;;;;;;2.70;83.40;99101.84;5003068;28;20045;-77
2021/01/23 06:37:39;;;;;;;22.60;10.18;;;;;;;2.48;84.71;99107.31;4973420;28;20482;-77
2021/01/23 06:40:07;;;;;;;23.40;10.73;;;;;;;2.51;84.78;99120.13;5010878;28;20049;-76
2021/01/23 06:42:47;;;;;;;19.55;10.23;;;;;;;2.83;84.22;99117.66;4987146;28;20037;-78
2021/01/23 06:45:24;;;;;;;19.27;10.10;;;;;;;2.98;83.95;99122.94;4973369;28;20066;-77
2021/01/23 06:47:56;;;;;;;21.45;10.20;;;;;;;2.90;83.48;99125.06;5007297;28;20054;-76
2021/01/23 06:50:29;;;;;;;18.38;10.85;;;;;;;3.17;83.09;99132.38;4970929;28;20552;-77
2021/01/23 06:52:56;;;;;;;23.55;9.80;;;;;;;3.30;81.62;99131.63;4996433;28;20051;-77
2021/01/23 06:55:43;;;;;;;16.13;10.13;;;;;;;3.28;80.93;99135.22;4982812;28;20050;-76
2021/01/23 06:58:14;;;;;;;20.05;10.05;;;;;;;3.38;80.71;99140.78;4973264;28;20051;-76
2021/01/23 07:00:41;;;;;;;22.30;9.82;;;;;;;3.37;81.64;99142.53;4995664;28;20077;-76
2021/01/23 07:03:14;;;;;;;19.27;11.07;;;;;;;3.21;82.38;99150.31;4996279;28;20049;-77
2021/01/23 07:05:46;;;;;;;20.63;9.77;;;;;;;3.18;82.26;99153.06;4997013;28;20038;-76
2021/01/23 07:08:23;;;;;;;20.30;10.55;;;;;;;3.10;82.43;99147.44;4997319;28;20705;-77
2021/01/23 07:11:22;;;;;;;28.35;10.45;;;;;;;3.40;81.99;99154.56;4973829;28;20110;-77
2021/01/23 07:14:02;;;;;;;17.90;10.18;;;;;;;3.31;81.55;99148.06;4979157;28;20065;-76
2021/01/23 07:16:31;;;;;;;17.70;9.43;;;;;;;3.09;82.94;99153.56;4994543;28;20089;-76
2021/01/23 07:19:03;;;;;;;18.75;9.82;;;;;;;3.02;83.52;99153.03;4976153;28;20101;-76
2021/01/23 07:21:33;;;;;;;16.75;9.48;;;;;;;3.35;83.40;99148.75;4974305;28;20058;-76
2021/01/23 07:24:01;;;;;;;20.13;10.82;;;;;;;3.29;83.86;99149.94;4992486;28;20050;-76
2021/01/23 07:26:28;;;;;;;19.77;10.75;;;;;;;3.32;84.78;99149.75;4970325;28;20047;-77
2021/01/23 07:28:56;;;;;;;18.92;10.90;;;;;;;3.35;84.63;99152.19;4986332;28;20054;-76
2021/01/23 07:31:32;;;;;;;19.60;10.75;;;;;;;3.23;84.61;99148.47;4983037;28;20516;-75
2021/01/23 07:34:02;;;;;;;21.73;10.75;;;;;;;3.19;86.15;99151.31;4968490;28;20600;-77
2021/01/23 07:36:34;;;;;;;16.55;9.27;;;;;;;3.21;85.57;99149.50;4988591;28;20134;-76
2021/01/23 07:39:04;;;;;;;20.27;9.05;;;;;;;3.16;86.02;99161.91;4989179;28;20038;-78
2021/01/23 07:41:32;;;;;;;20.25;9.50;;;;;;;3.12;85.40;99156.00;4985253;28;20048;-77
2021/01/23 07:44:00;;;;;;;20.45;8.63;;;;;;;3.05;85.48;99155.47;4991627;28;20058;-77
2021/01/23 07:47:00;;;;;;;23.13;9.88;;;;;;;2.92;85.84;99159.63;4988779;28;20066;-75
2021/01/23 07:49:28;;;;;;;23.00;9.93;;;;;;;2.73;86.80;99164.06;4978610;28;20382;-76
2021/01/23 07:52:05;;;;;;;20.95;8.13;;;;;;;2.54;87.46;99164.97;4986199;28;20057;-77
2021/01/23 07:54:32;;;;;;;15.65;8.10;;;;;;;2.35;87.78;99168.56;4994531;28;20081;-76
2021/01/23 07:56:59;;;;;;;17.38;10.60;;;;;;;2.26;88.73;99167.25;4967920;28;20045;-79
2021/01/23 07:59:45;;;;;;;16.85;8.82;;;;;;;2.37;88.43;99167.56;5017848;28;20122;-76
2021/01/23 08:02:13;;;;;;;21.77;10.60;;;;;;;2.12;90.25;99180.06;5002883;28;20086;-75
2021/01/23 08:04:40;;;;;;;19.95;10.27;;;;;;;2.15;90.67;99172.94;5015504;28;20050;-76
2021/01/23 08:07:24;;;;;;;24.60;11.23;;;;;;;2.20;90.55;99167.53;5014074;28;20046;-77
2021/01/23 08:10:06;;;;;;;17.83;10.05;;;;;;;2.07;90.29;99169.88;4987785;28;20092;-78
2021/01/23 08:12:40;;;;;;;29.80;11.27;;;;;;;1.90;92.38;99175.03;4983929;28;21447;-77
2021/01/23 08:15:08;;;;;;;26.42;12.75;;;;;;;1.66;94.59;99169.19;4972019;28;20647;-78
2021/01/23 08:17:36;;;;;;;34.10;12.25;;;;;;;1.61;95.77;99182.38;4989680;28;20068;-77
2021/01/23 08:20:05;;;;;;;23.15;11.57;;;;;;;1.47;95.45;99180.41;4991177;28;20389;-75
2021/01/23 08:22:32;;;;;;;30.25;12.13;;;;;;;1.53;95.03;99174.09;4972049;28;20073;-78
2021/01/23 08:24:59;;;;;;;29.77;13.75;;;;;;;1.49;95.03;99170.00;4989378;28;20046;-77
2021/01/23 08:27:28;;;;;;;19.80;12.57;;;;;;;1.52;96.15;99162.06;4973814;28;20133;-77
2021/01/23 08:29:54;;;;;;;44.05;13.23;;;;;;;1.38;96.38;99167.03;4990139;28;20042;-77
2021/01/23 08:32:21;;;;;;;28.13;13.30;;;;;;;1.34;96.31;99168.06;5016988;28;20068;-77
2021/01/23 08:34:48;;;;;;;27.27;13.32;;;;;;;1.32;97.01;99160.38;5006043;28;20056;-76
2021/01/23 08:37:15;;;;;;;28.55;15.18;;;;;;;1.20;97.90;99145.34;4985401;28;20046;-76
2021/01/23 08:39:49;;;;;;;25.23;14.15;;;;;;;1.21;97.52;99149.63;4995884;28;20053;-77
2021/01/23 08:42:15;;;;;;;26.25;12.13;;;;;;;1.24;97.51;99146.91;5003333;28;20131;-78
2021/01/23 08:44:42;;;;;;;29.65;12.70;;;;;;;1.13;98.06;99143.94;4987156;28;20665;-79
2021/01/23 08:47:10;;;;;;;28.92;12.57;;;;;;;1.21;97.62;99140.09;4983849;28;20073;-81
2021/01/23 08:49:37;;;;;;;38.80;14.05;;;;;;;1.37;97.76;99140.25;4985667;28;20034;-78
2021/01/23 08:52:03;;;;;;;28.02;12.40;;;;;;;1.34;97.43;99142.97;4985898;28;20046;-80
2021/01/23 08:54:30;;;;;;;31.98;10.63;;;;;;;1.32;97.94;99142.22;4994904;28;20050;-78
2021/01/23 08:56:59;;;;;;;24.50;11.25;;;;;;;1.41;97.75;99139.22;4996285;28;20053;-77
2021/01/23 08:59:26;;;;;;;30.50;12.30;;;;;;;1.40;97.85;99140.13;4978307;28;20054;-79
2021/01/23 09:01:52;;;;;;;24.65;11.07;;;;;;;1.56;98.30;99142.00;4992886;28;20046;-77
2021/01/23 09:04:19;;;;;;;27.25;10.30;;;;;;;1.67;97.59;99147.56;4987882;28;20050;-77
2021/01/23 09:06:46;;;;;;;43.42;12.13;;;;;;;1.70;97.14;99140.44;4998279;28;20105;-75
2021/01/23 09:09:13;;;;;;;32.67;9.40;;;;;;;1.70;97.09;99144.81;4974755;28;20050;-77
2021/01/23 09:11:40;;;;;;;30.48;9.23;;;;;;;1.44;96.88;99146.84;4968981;28;20061;-75
2021/01/23 09:14:07;;;;;;;24.13;9.40;;;;;;;1.44;97.52;99139.09;4972409;28;20137;-76
2021/01/23 09:16:33;;;;;;;20.15;9.85;;;;;;;1.45;97.57;99129.53;4992457;28;20054;-77
2021/01/23 09:19:00;;;;;;;26.45;11.82;;;;;;;1.49;97.41;99118.97;4989899;28;20073;-78
2021/01/23 09:21:27;;;;;;;28.50;11.98;;;;;;;1.35;96.90;99123.94;4972818;28;20050;-77
2021/01/23 09:23:54;;;;;;;27.65;12.48;;;;;;;1.26;97.36;99129.50;4981485;28;20038;-75
2021/01/23 09:26:23;;;;;;;23.40;11.90;;;;;;;1.23;97.01;99121.88;4987670;28;20058;-76
2021/01/23 09:28:49;;;;;;;34.70;13.85;;;;;;;1.15;97.95;99113.59;4986346;28;20055;-77
2021/01/23 09:31:16;;;;;;;30.20;13.93;;;;;;;1.14;98.28;99119.72;4986074;28;20050;-75
2021/01/23 09:33:44;;;;;;;29.35;14.40;;;;;;;1.18;98.24;99126.44;4976844;28;20061;-76
2021/01/23 09:36:11;;;;;;;39.35;15.13;;;;;;;1.10;99.04;99124.19;5002468;28;20072;-79
2021/01/23 09:38:38;;;;;;;35.88;15.70;;;;;;;1.06;99.02;99125.22;4998441;28;20512;-77
2021/01/23 09:41:06;;;;;;;40.55;17.05;;;;;;;1.17;99.30;99120.44;4974856;28;20058;-77
2021/01/23 09:43:33;;;;;;;61.15;19.02;;;;;;;1.27;98.91;99116.50;4996395;28;20054;-77
2021/01/23 09:46:00;;;;;;;33.38;16.67;;;;;;;1.33;98.77;99117.97;4990940;28;20050;-76
2021/01/23 09:48:27;;;;;;;45.85;17.48;;;;;;;1.28;97.89;99112.16;4976480;28;20456;-75
2021/01/23 09:50:54;;;;;;;35.30;17.52;;;;;;;1.09;98.53;99109.56;4985959;28;20054;-78
2021/01/23 09:53:20;;;;;;;33.75;15.23;;;;;;;1.15;98.36;99109.25;4983431;28;20054;-75
2021/01/23 09:55:48;;;;;;;34.67;16.70;;;;;;;1.10;98.68;99110.38;5004540;28;20204;-75
2021/01/23 09:58:14;;;;;;;31.05;16.08;;;;;;;1.02;98.49;99110.72;4985673;28;20058;-72
2021/01/23 10:00:41;;;;;;;33.42;17.23;;;;;;;0.99;98.96;99106.53;4974825;28;20057;-75
2021/01/23 10:03:08;;;;;;;28.10;15.88;;;;;;;1.13;99.28;99116.28;4965404;28;20093;-75
2021/01/23 10:05:36;;;;;;;33.83;19.05;;;;;;;1.31;99.06;99112.03;4990429;28;20046;-76
2021/01/23 10:08:03;;;;;;;31.63;17.00;;;;;;;1.44;98.43;99096.72;4987257;28;20061;-74
2021/01/23 10:10:31;;;;;;;30.45;16.95;;;;;;;1.29;98.29;99095.69;4999819;28;20050;-74
2021/01/23 10:12:57;;;;;;;34.72;18.77;;;;;;;1.13;98.69;99102.50;4978275;28;20038;-74
2021/01/23 10:15:24;;;;;;;34.65;18.65;;;;;;;1.26;98.74;99093.22;4989269;28;20084;-74
2021/01/23 10:17:52;;;;;;;35.72;18.92;;;;;;;1.18;99.09;99087.56;4993522;28;20049;-73
2021/01/23 10:20:21;;;;;;;36.85;18.88;;;;;;;1.19;99.00;99086.66;5000747;28;20046;-75
2021/01/23 10:22:48;;;;;;;45.25;19.33;;;;;;;1.73;100.00;99080.66;5029022;28;20058;-76
2021/01/23 10:25:15;;;;;;;38.22;19.02;;;;;;;1.56;99.44;99075.41;4970273;28;20069;-78
2021/01/23 10:27:41;;;;;;;30.30;18.25;;;;;;;1.72;98.38;99078.16;4984142;28;20045;-78
2021/01/23 10:30:09;;;;;;;30.88;17.50;;;;;;;1.70;98.01;99083.38;4986267;28;20106;-76
2021/01/23 10:32:36;;;;;;;30.30;17.13;;;;;;;1.66;97.42;99081.84;4980713;28;20058;-75
2021/01/23 10:35:03;;;;;;;33.60;17.67;;;;;;;1.41;98.64;99083.91;4990195;28;20042;-77
2021/01/23 10:37:31;;;;;;;36.08;17.85;;;;;;;1.17;98.94;99078.94;4999449;28;20058;-76
2021/01/23 10:39:57;;;;;;;38.35;17.70;;;;;;;1.16;99.78;99079.00;4977341;28;20172;-76
2021/01/23 10:42:24;;;;;;;29.02;18.33;;;;;;;1.21;99.88;99083.06;4981411;28;20070;-73
2021/01/23 10:44:51;;;;;;;34.83;17.48;;;;;;;1.45;100.00;99069.91;4983896;28;20051;-75
2021/01/23 10:47:18;;;;;;;30.17;15.07;;;;;;;1.49;99.46;99074.03;4981690;28;20178;-76
2021/01/23 10:49:45;;;;;;;32.15;15.05;;;;;;;1.61;99.28;99070.84;4979671;28;20069;-76
2021/01/23 10:52:12;;;;;;;28.35;14.15;;;;;;;1.31;99.19;99070.53;4980173;28;20153;-76
2021/01/23 10:54:39;;;;;;;25.65;14.35;;;;;;;1.28;99.54;99073.25;4980203;28;20085;-75
2021/01/23 10:57:06;;;;;;;30.73;15.63;;;;;;;1.44;99.80;99079.44;4975928;28;20074;-74
2021/01/23 10:59:33;;;;;;;34.45;15.82;;;;;;;1.55;99.65;99071.16;4980295;28;20072;-77
2021/01/23 11:02:00;;;;;;;28.75;17.00;;;;;;;1.32;100.00;99071.38;4965969;28;20903;-75
2021/01/23 11:04:27;;;;;;;33.33;16.70;;;;;;;1.40;100.00;99077.06;4980505;28;20065;-75
2021/01/23 11:06:54;;;;;;;34.85;16.88;;;;;;;1.35;100.00;99068.63;4960217;28;20069;-74
2021/01/23 11:09:21;;;;;;;32.15;16.50;;;;;;;1.55;100.00;99063.38;4980388;28;21134;-75
2021/01/23 11:11:48;;;;;;;37.08;15.23;;;;;;;1.66;100.00;99057.66;4977060;28;20065;-76
2021/01/23 11:14:14;;;;;;;32.85;14.27;;;;;;;1.73;99.23;99062.50;4986855;28;20046;-74
2021/01/23 11:16:42;;;;;;;33.35;15.55;;;;;;;1.67;98.85;99061.97;4983394;28;20046;-74
2021/01/23 11:19:10;;;;;;;33.88;13.70;;;;;;;1.58;99.32;99060.63;4984829;28;20412;-77
2021/01/23 11:21:37;;;;;;;38.13;13.95;;;;;;;1.75;99.50;99057.22;4982217;28;20058;-75
2021/01/23 11:24:04;;;;;;;30.38;12.40;;;;;;;1.78;98.93;99059.69;4980850;28;20093;-77
2021/01/23 11:26:33;;;;;;;21.58;11.27;;;;;;;1.67;98.48;99057.59;4976703;28;21048;-74
2021/01/23 11:29:00;;;;;;;24.70;10.38;;;;;;;1.67;98.04;99054.19;4978480;28;20050;-76
2021/01/23 11:31:27;;;;;;;21.73;10.25;;;;;;;1.66;98.54;99049.88;4980397;28;20188;-75
2021/01/23 11:33:54;;;;;;;21.02;9.77;;;;;;;1.71;98.01;99043.59;4981725;28;20057;-74
2021/01/23 11:36:21;;;;;;;20.63;9.10;;;;;;;1.92;99.38;99051.22;4981256;28;20065;-76
2021/01/23 11:38:48;;;;;;;17.67;8.07;;;;;;;1.86;97.08;99043.75;4980061;28;20062;-75
2021/01/23 11:41:15;;;;;;;21.77;7.82;;;;;;;1.67;98.18;99041.22;4984504;28;20155;-76